createdAt,value
2019-02-19T07:31:46.794Z,51.70
2019-02-19T07:34:15.482Z,60.20
2019-02-19T07:36:44.270Z,54.00
2019-02-19T07:39:13.092Z,44.70
2019-02-19T07:41:41.845Z,43.90
2019-02-19T07:46:39.493Z,32.40
2019-02-19T07:49:08.058Z,37.90
2019-02-19T07:51:36.643Z,45.90
2019-02-19T07:54:05.142Z,51.20
2019-02-19T07:56:33.725Z,55.40
2019-02-19T07:59:02.200Z,57.60
2019-02-19T08:01:30.777Z,58.90
2019-02-19T08:03:59.246Z,59.80
2019-02-19T08:06:27.757Z,61.00
2019-02-19T08:08:56.287Z,62.30
2019-02-19T08:11:24.785Z,63.20
2019-02-19T08:13:53.318Z,63.40
2019-02-19T08:16:21.819Z,63.90
2019-02-19T08:18:50.446Z,63.80
2019-02-19T08:21:18.958Z,62.70
2019-02-19T08:23:47.523Z,63.00
2019-02-19T08:26:16.070Z,63.60
2019-02-19T08:28:44.566Z,63.50
2019-02-19T08:31:13.084Z,62.80
2019-02-19T08:33:41.587Z,62.40
2019-02-19T08:36:10.151Z,62.90
2019-02-19T08:38:38.687Z,63.90
2019-02-19T08:41:07.187Z,64.80
2019-02-19T08:43:35.723Z,65.20
2019-02-19T08:46:04.232Z,64.90
2019-02-19T08:48:32.842Z,64.30
2019-02-19T08:51:01.322Z,63.80
2019-02-19T08:53:29.947Z,63.60
2019-02-19T08:55:58.447Z,63.30
2019-02-19T08:58:26.954Z,63.40
2019-02-19T09:00:55.507Z,63.10
2019-02-19T09:03:24.021Z,63.00
2019-02-19T09:05:52.558Z,62.90
2019-02-19T09:08:21.062Z,62.80
2019-02-19T09:10:49.673Z,62.10
2019-02-19T09:13:18.190Z,61.90
2019-02-19T09:15:46.748Z,61.70
2019-02-19T09:18:15.345Z,62.40
2019-02-19T09:20:43.828Z,61.90
2019-02-19T09:23:12.359Z,61.80
2019-02-19T09:25:40.861Z,61.40
2019-02-19T09:28:09.392Z,61.10
2019-02-19T09:30:37.918Z,60.80
2019-02-19T09:33:06.525Z,60.60
2019-02-19T09:35:35.116Z,59.80
2019-02-19T09:38:03.705Z,59.00
2019-02-19T09:40:33.534Z,59.20
2019-02-19T09:43:02.399Z,59.00
2019-02-19T09:45:30.944Z,58.50
2019-02-19T09:48:01.452Z,58.30
2019-02-19T09:50:29.732Z,58.30
2019-02-19T09:53:00.227Z,59.20
2019-02-19T09:55:28.502Z,59.60
2019-02-19T09:57:56.983Z,59.50
2019-02-19T10:00:25.506Z,59.40
2019-02-19T10:02:54.045Z,59.10
2019-02-19T10:05:22.574Z,59.30
2019-02-19T10:07:51.118Z,58.90
2019-02-19T10:10:23.599Z,58.50
2019-02-19T10:12:52.131Z,58.20
2019-02-19T10:15:20.631Z,58.00
2019-02-19T10:17:49.154Z,58.60
2019-02-19T10:20:17.672Z,59.20
2019-02-19T10:22:46.194Z,58.10
2019-02-19T10:25:15.015Z,57.60
2019-02-19T10:27:43.664Z,56.70
2019-02-19T10:30:14.808Z,56.90
2019-02-19T10:32:43.326Z,56.50
2019-02-19T10:35:12.250Z,56.30
2019-02-19T10:37:40.762Z,55.90
2019-02-19T10:40:17.799Z,56.10
2019-02-19T10:42:46.331Z,55.60
2019-02-19T10:45:17.761Z,55.30
2019-02-19T10:47:46.303Z,55.30
2019-02-19T10:50:14.851Z,54.70
2019-02-19T10:52:43.372Z,54.20
2019-02-19T10:55:11.926Z,53.80
2019-02-19T10:57:40.428Z,53.80
2019-02-19T11:00:16.633Z,53.40
2019-02-19T11:02:45.204Z,52.90
2019-02-19T11:05:13.758Z,52.60
2019-02-19T11:07:42.301Z,52.50
2019-02-19T11:10:13.440Z,52.10
2019-02-19T11:12:42.117Z,52.70
2019-02-19T11:15:12.368Z,53.30
2019-02-19T11:17:40.964Z,52.40
2019-02-19T11:20:15.331Z,51.90
2019-02-19T11:22:44.130Z,50.90
2019-02-19T11:25:12.922Z,49.70
2019-02-19T11:27:41.438Z,49.60
2019-02-19T11:30:17.986Z,49.00
2019-02-19T11:32:46.578Z,48.30
2019-02-19T11:35:15.115Z,47.70
2019-02-19T11:37:43.634Z,47.90
2019-02-19T11:40:13.280Z,47.70
2019-02-19T11:42:41.768Z,47.20
2019-02-19T11:45:16.093Z,46.60
2019-02-19T11:47:44.607Z,47.50
2019-02-19T11:50:13.476Z,47.30
2019-02-19T11:52:41.997Z,47.30
2019-02-19T11:55:13.763Z,46.90
2019-02-19T11:57:42.368Z,47.10
2019-02-19T12:00:17.217Z,47.70
2019-02-19T12:02:45.823Z,47.30
2019-02-19T12:05:14.312Z,46.70
2019-02-19T12:07:42.810Z,46.10
2019-02-19T12:10:12.027Z,46.00
2019-02-19T12:12:40.896Z,45.90
2019-02-19T12:15:11.609Z,46.40
2019-02-19T12:17:40.121Z,47.70
2019-02-19T12:20:13.740Z,47.70
2019-02-19T12:22:42.266Z,46.80
2019-02-19T12:25:10.915Z,45.30
2019-02-19T12:27:39.445Z,44.80
2019-02-19T12:30:13.282Z,44.90
2019-02-19T12:32:41.833Z,44.50
2019-02-19T12:35:10.408Z,44.50
2019-02-19T12:37:38.994Z,44.20
2019-02-19T12:40:15.114Z,44.20
2019-02-19T12:42:43.694Z,44.70
2019-02-19T12:45:13.846Z,45.90
2019-02-19T12:47:42.364Z,45.30
2019-02-19T12:50:15.824Z,44.50
2019-02-19T12:52:44.398Z,44.40
2019-02-19T12:55:12.935Z,44.10
2019-02-19T12:57:41.443Z,43.90
2019-02-19T13:00:15.883Z,44.50
2019-02-19T13:02:44.415Z,44.80
2019-02-19T13:05:14.439Z,45.10
2019-02-19T13:07:42.987Z,44.50
2019-02-19T13:10:12.350Z,44.00
2019-02-19T13:12:40.878Z,43.80
2019-02-19T13:15:12.133Z,44.50
2019-02-19T13:17:40.705Z,45.00
2019-02-19T13:20:14.160Z,45.60
2019-02-19T13:22:42.674Z,45.80
2019-02-19T13:25:13.595Z,45.70
2019-02-19T13:27:42.183Z,45.70
2019-02-19T13:30:21.345Z,45.70
2019-02-19T13:32:49.857Z,45.80
2019-02-19T13:35:18.483Z,44.20
2019-02-19T13:37:47.099Z,41.10
2019-02-19T13:40:19.934Z,38.60
2019-02-19T13:42:48.475Z,38.10
2019-02-19T13:45:16.988Z,37.20
2019-02-19T13:47:45.566Z,37.80
2019-02-19T13:50:26.249Z,41.30
2019-02-19T13:53:05.320Z,41.70
2019-02-19T13:55:35.492Z,42.30
2019-02-19T13:58:04.033Z,39.80
2019-02-19T14:00:34.263Z,40.60
2019-02-19T14:03:02.785Z,40.50
2019-02-19T14:05:31.369Z,40.00
2019-02-19T14:07:59.867Z,40.30
2019-02-19T14:10:28.410Z,41.20
2019-02-19T14:12:56.937Z,40.20
2019-02-19T14:15:27.087Z,37.20
2019-02-19T14:17:55.614Z,33.80
2019-02-19T14:20:25.784Z,32.10
2019-02-19T14:23:04.765Z,29.90
2019-02-19T14:25:40.918Z,29.80
2019-02-19T14:28:11.106Z,29.30
2019-02-19T14:30:43.748Z,28.50
2019-02-19T14:33:19.916Z,29.50
2019-02-19T14:36:08.590Z,32.30
2019-02-19T14:38:38.760Z,35.60
2019-02-19T14:41:08.904Z,37.50
2019-02-19T14:43:55.255Z,38.50
2019-02-19T14:46:41.755Z,39.10
2019-02-19T14:49:11.917Z,35.40
2019-02-19T14:51:58.305Z,31.00
2019-02-19T14:54:31.186Z,29.00
2019-02-19T14:57:17.413Z,27.90
2019-02-19T15:00:03.682Z,26.90
2019-02-19T15:02:49.770Z,26.20
2019-02-19T15:05:36.153Z,26.50
2019-02-19T15:08:06.282Z,26.80
2019-02-19T15:10:51.536Z,26.50
2019-02-19T15:13:21.701Z,26.50
2019-02-19T15:16:08.277Z,26.60
2019-02-19T15:18:50.078Z,25.90
2019-02-19T15:21:35.105Z,26.70
2019-02-19T15:24:21.662Z,28.10
2019-02-19T15:26:54.682Z,28.70
2019-02-19T15:29:42.932Z,29.30
2019-02-19T15:32:16.136Z,29.10
2019-02-19T15:35:01.675Z,28.40
2019-02-19T15:37:31.819Z,28.20
2019-02-19T15:40:07.741Z,27.90
2019-02-19T15:42:54.433Z,28.20
2019-02-19T15:45:24.610Z,28.80
2019-02-19T15:48:10.945Z,29.70
2019-02-19T15:50:56.297Z,31.50
2019-02-19T15:53:26.453Z,31.90
2019-02-19T15:56:17.203Z,31.20
2019-02-19T15:58:52.356Z,30.70
2019-02-19T16:01:37.919Z,30.80
2019-02-19T16:04:10.877Z,31.60
2019-02-19T16:06:53.329Z,32.90
2019-02-19T16:09:32.192Z,33.80
2019-02-19T16:12:11.216Z,34.00
2019-02-19T16:14:53.548Z,34.20
2019-02-19T16:17:39.440Z,36.40
2019-02-19T16:20:13.944Z,39.00
2019-02-19T16:22:44.172Z,41.20
2019-02-19T16:25:15.500Z,42.80
2019-02-19T16:27:48.708Z,43.60
2019-02-19T16:30:18.864Z,44.10
2019-02-19T16:32:48.995Z,45.00
2019-02-19T16:35:19.159Z,46.80
2019-02-19T16:37:49.325Z,46.70
2019-02-19T16:40:19.547Z,46.90
2019-02-19T16:43:01.850Z,48.70
2019-02-19T16:45:34.398Z,47.90
2019-02-19T16:48:07.714Z,49.40
2019-02-19T16:50:38.086Z,56.80
2019-02-19T16:53:10.837Z,60.00
2019-02-19T16:55:57.164Z,62.90
2019-02-19T16:58:36.248Z,65.00
2019-02-19T17:01:09.707Z,66.70
2019-02-19T17:03:42.856Z,68.20
2019-02-19T17:06:16.037Z,68.10
2019-02-19T17:08:46.208Z,68.40
2019-02-19T17:11:16.366Z,68.30
2019-02-19T17:14:01.775Z,68.60
2019-02-19T17:16:47.158Z,69.60
2019-02-19T17:19:17.329Z,69.90
2019-02-19T17:21:47.542Z,69.40
2019-02-19T17:24:23.507Z,69.10
2019-02-19T17:27:06.037Z,69.20
2019-02-19T17:29:41.900Z,69.10
2019-02-19T17:32:14.787Z,69.30
2019-02-19T17:35:03.307Z,69.50
2019-02-19T17:37:42.276Z,69.60
2019-02-19T17:40:14.980Z,70.10
2019-02-19T17:42:54.157Z,70.50
2019-02-19T17:45:26.759Z,70.30
2019-02-19T17:47:56.935Z,70.20
2019-02-19T17:50:45.213Z,70.30
2019-02-19T17:53:21.644Z,70.40
2019-02-19T17:55:52.136Z,70.80
2019-02-19T17:58:28.412Z,71.00
2019-02-19T18:00:58.621Z,71.00
2019-02-19T18:03:41.226Z,71.00
2019-02-19T18:06:14.166Z,71.00
2019-02-19T18:08:47.036Z,71.70
2019-02-19T18:11:22.792Z,71.70
2019-02-19T18:14:11.853Z,71.40
2019-02-19T18:16:42.097Z,71.60
2019-02-19T18:19:10.623Z,72.20
2019-02-19T18:21:39.134Z,72.50
2019-02-19T18:24:07.724Z,73.50
2019-02-19T18:26:36.250Z,73.90
2019-02-19T18:29:04.831Z,74.30
2019-02-19T18:31:33.333Z,74.50
2019-02-19T18:34:01.853Z,74.20
2019-02-19T18:36:30.536Z,73.80
2019-02-19T18:38:59.224Z,73.90
2019-02-19T18:41:27.760Z,73.90
2019-02-19T18:43:56.277Z,73.80
2019-02-19T18:46:24.850Z,74.00
2019-02-19T18:48:53.349Z,74.50
2019-02-19T18:51:21.872Z,75.30
2019-02-19T18:53:50.418Z,76.50
2019-02-19T18:56:18.939Z,76.70
2019-02-19T18:58:47.481Z,76.50
2019-02-19T19:01:16.003Z,76.70
2019-02-19T19:03:44.580Z,77.30
2019-02-19T19:06:13.106Z,77.80
2019-02-19T19:08:41.592Z,77.60
2019-02-19T19:11:10.241Z,77.60
2019-02-19T19:13:38.740Z,76.70
2019-02-19T19:16:07.278Z,76.60
2019-02-19T19:18:35.778Z,77.50
2019-02-19T19:21:07.878Z,77.90
2019-02-19T19:23:34.623Z,78.20
2019-02-19T19:26:03.137Z,77.90
2019-02-19T19:28:31.679Z,77.80
2019-02-19T19:31:00.193Z,77.50
2019-02-19T19:33:28.733Z,77.40
2019-02-19T19:35:57.316Z,77.60
2019-02-19T19:38:25.869Z,78.60
2019-02-19T19:40:54.376Z,79.10
2019-02-19T19:43:23.004Z,79.40
2019-02-19T19:45:51.621Z,78.90
2019-02-19T19:48:20.120Z,78.60
2019-02-19T19:50:48.668Z,79.10
2019-02-19T19:53:17.194Z,80.00
2019-02-19T19:55:45.843Z,80.10
2019-02-19T19:58:14.344Z,80.00
2019-02-19T20:00:42.953Z,81.30
2019-02-19T20:03:11.469Z,82.50
2019-02-19T20:05:39.963Z,82.10
2019-02-19T20:08:08.595Z,81.90
2019-02-19T20:10:37.100Z,82.20
2019-02-19T20:13:05.677Z,82.50
2019-02-19T20:15:34.150Z,82.70
2019-02-19T20:18:02.739Z,82.20
2019-02-19T20:20:32.618Z,82.30
2019-02-19T20:23:01.190Z,83.80
2019-02-19T20:25:29.723Z,84.60
2019-02-19T20:27:58.367Z,85.30
2019-02-19T20:30:26.956Z,85.70
2019-02-19T20:32:55.508Z,86.60
2019-02-19T20:35:26.377Z,87.00
2019-02-19T20:37:54.873Z,87.00
2019-02-19T20:40:23.388Z,86.70
2019-02-19T20:42:51.938Z,86.20
2019-02-19T20:45:20.482Z,85.90
2019-02-19T20:47:49.068Z,86.40
2019-02-19T20:50:17.573Z,87.00
2019-02-19T20:52:46.119Z,87.20
2019-02-19T20:55:14.759Z,87.00
2019-02-19T20:57:43.295Z,85.40
2019-02-19T21:00:15.407Z,84.50
2019-02-19T21:02:44.058Z,83.60
2019-02-19T21:05:12.553Z,84.40
2019-02-19T21:07:41.130Z,84.90
2019-02-19T21:10:16.553Z,86.20
2019-02-19T21:12:45.589Z,87.30
2019-02-19T21:15:14.129Z,88.70
2019-02-19T21:17:42.656Z,89.80
2019-02-19T21:20:12.234Z,88.60
2019-02-19T21:22:40.746Z,87.90
2019-02-19T21:25:10.457Z,88.70
2019-02-19T21:27:38.979Z,89.20
2019-02-19T21:30:15.001Z,90.00
2019-02-19T21:32:43.510Z,90.30
2019-02-19T21:35:12.148Z,90.40
2019-02-19T21:37:40.804Z,89.70
2019-02-19T21:40:14.148Z,90.90
2019-02-19T21:42:42.689Z,91.00
2019-02-19T21:45:13.803Z,91.10
2019-02-19T21:48:01.821Z,90.80
2019-02-19T21:50:30.343Z,90.40
2019-02-19T21:52:58.852Z,90.10
2019-02-19T21:55:27.376Z,90.10
2019-02-19T21:57:55.883Z,90.20
2019-02-19T22:00:24.492Z,91.00
2019-02-19T22:02:53.052Z,92.00
2019-02-19T22:05:23.530Z,91.50
2019-02-19T22:07:51.761Z,91.30
2019-02-19T22:10:20.623Z,91.10
2019-02-19T22:12:49.140Z,91.30
2019-02-19T22:15:17.672Z,91.30
2019-02-19T22:17:46.204Z,91.80
2019-02-19T22:20:21.653Z,91.80
2019-02-19T22:22:50.202Z,91.20
2019-02-19T22:25:18.709Z,90.80
2019-02-19T22:27:47.240Z,90.70
2019-02-19T22:30:15.793Z,90.30
2019-02-19T22:32:44.382Z,90.40
2019-02-19T22:35:13.204Z,90.10
2019-02-19T22:37:41.678Z,89.20
2019-02-19T22:40:10.229Z,89.40
2019-02-19T22:42:38.727Z,90.20
2019-02-19T22:45:08.908Z,90.20
2019-02-19T22:47:37.615Z,90.60
2019-02-19T22:50:07.567Z,91.10
2019-02-19T22:52:36.149Z,91.60
2019-02-19T22:55:07.891Z,91.70
2019-02-19T22:57:36.462Z,91.50
2019-02-19T23:00:09.933Z,91.40
2019-02-19T23:02:38.463Z,91.50
2019-02-19T23:05:07.200Z,91.30
2019-02-19T23:07:35.743Z,91.40
2019-02-19T23:10:05.857Z,91.20
2019-02-19T23:12:34.447Z,91.30
2019-02-19T23:15:03.107Z,91.50
2019-02-19T23:17:31.677Z,91.40
2019-02-19T23:20:00.314Z,91.40
2019-02-19T23:22:28.975Z,91.50
2019-02-19T23:24:57.756Z,91.50
2019-02-19T23:27:26.220Z,91.60
2019-02-19T23:29:54.759Z,91.60
2019-02-19T23:32:23.289Z,91.50
2019-02-19T23:34:53.464Z,91.70
2019-02-19T23:37:22.113Z,91.80
2019-02-19T23:39:50.686Z,91.90
2019-02-19T23:42:19.232Z,91.90
2019-02-19T23:44:47.815Z,91.90
2019-02-19T23:47:16.346Z,92.20
2019-02-19T23:49:44.867Z,92.30
2019-02-19T23:52:13.468Z,92.30
2019-02-19T23:54:42.035Z,92.20
2019-02-19T23:57:10.536Z,92.10
2019-02-19T23:59:39.077Z,92.10
